Time;durP1;ratioP1;P1;durP2;ratioP2;P2;SDS_P1;SDS_P2;PMS_P1;PMS_P2;Temp;Humidity;BMP_temperature;BMP_pressure;BME280_temperature;BME280_humidity;BME280_pressure;Samples;Min_cycle;Max_cycle;Signal;HPM_P1;HPM_P2
2021/09/23 00:00:10;;;;;;;;;;;13.90;99.90;;;;;;5095624;28;19938;-89
2021/09/23 00:03:00;;;;;;;;;;;13.80;99.90;;;;;;5096018;28;19924;-89
2021/09/23 00:05:30;;;;;;;;;;;13.80;99.90;;;;;;5096064;28;19932;-89
2021/09/23 00:07:58;;;;;;;;;;;13.90;99.90;;;;;;5095845;28;19924;-89
2021/09/23 00:10:27;;;;;;;;;;;13.90;99.90;;;;;;5095822;28;19930;-90
2021/09/23 00:12:56;;;;;;;;;;;13.90;99.90;;;;;;5095873;28;19934;-89
2021/09/23 00:15:26;;;;;;;;;;;13.90;99.90;;;;;;5095977;28;19938;-89
2021/09/23 00:17:56;;;;;;;;;;;13.90;99.90;;;;;;5095841;28;19973;-89
2021/09/23 00:20:26;;;;;;;;;;;13.90;99.90;;;;;;5095674;28;20267;-89
2021/09/23 00:23:08;;;;;;;;;;;14.00;99.90;;;;;;5095436;28;20015;-89
2021/09/23 00:25:36;;;;;;;;;;;14.00;99.90;;;;;;5096162;28;20249;-90
2021/09/23 00:28:05;;;;;;;;;;;14.00;99.90;;;;;;5096038;28;19934;-89
2021/09/23 00:30:35;;;;;;;;;;;14.00;99.90;;;;;;5095458;28;19950;-89
2021/09/23 00:33:03;;;;;;;;;;;14.00;99.90;;;;;;5095671;28;20426;-89
2021/09/23 00:35:31;;;;;;;;;;;14.00;99.90;;;;;;5095484;28;19924;-89
2021/09/23 00:38:01;;;;;;;;;;;14.00;99.90;;;;;;5095373;28;19928;-89
2021/09/23 00:40:29;;;;;;;;;;;14.00;99.90;;;;;;5095758;28;20275;-89
2021/09/23 00:42:57;;;;;;;;;;;14.00;99.90;;;;;;5095383;28;19935;-88
2021/09/23 00:45:27;;;;;;;;;;;14.00;99.90;;;;;;5095333;28;19924;-88
2021/09/23 00:47:55;;;;;;;;;;;14.00;99.90;;;;;;5095578;28;20038;-89
2021/09/23 00:50:23;;;;;;;;;;;14.00;99.90;;;;;;5095605;28;19935;-89
2021/09/23 00:52:50;;;;;;;;;;;14.00;99.90;;;;;;5095175;28;19934;-88
2021/09/23 00:55:20;;;;;;;;;;;14.00;99.90;;;;;;5094937;28;19924;-89
2021/09/23 00:57:48;;;;;;;;;;;14.00;99.90;;;;;;5095153;28;19975;-89
2021/09/23 01:00:17;;;;;;;;;;;14.00;99.90;;;;;;5095178;28;20293;-88
2021/09/23 01:02:48;;;;;;;;;;;14.00;99.90;;;;;;5095370;28;20324;-89
2021/09/23 01:05:16;;;;;;;;;;;14.00;99.90;;;;;;5095517;28;19963;-89
2021/09/23 01:07:49;;;;;;;;;;;14.00;99.90;;;;;;5093469;28;19924;-89
2021/09/23 01:10:18;;;;;;;;;;;14.00;99.90;;;;;;5063379;28;19944;-89
2021/09/23 01:12:49;;;;;;;;;;;14.00;99.90;;;;;;5064939;28;19951;-89
2021/09/23 01:15:20;;;;;;;;;;;14.00;99.90;;;;;;5074423;28;19925;-89
2021/09/23 01:17:47;;;;;;;;;;;14.00;99.90;;;;;;5074938;28;20410;-89
2021/09/23 01:20:18;;;;;;;;;;;14.00;99.90;;;;;;5074766;28;19935;-89
2021/09/23 01:22:50;;;;;;;;;;;14.10;99.90;;;;;;5074716;28;19935;-89
2021/09/23 01:25:22;;;;;;;;;;;14.10;99.90;;;;;;5073027;28;20358;-88
2021/09/23 01:27:51;;;;;;;;;;;14.10;99.90;;;;;;5075058;28;19924;-89
2021/09/23 01:30:19;;;;;;;;;;;14.10;99.90;;;;;;5074933;28;20277;-89
2021/09/23 01:32:47;;;;;;;;;;;14.10;99.90;;;;;;5074736;28;20262;-89
2021/09/23 01:35:18;;;;;;;;;;;14.20;99.90;;;;;;5074929;28;19935;-89
2021/09/23 01:37:55;;;;;;;;;;;14.10;99.90;;;;;;5074985;28;19925;-89
2021/09/23 01:40:23;;;;;;;;;;;14.20;99.90;;;;;;5074716;28;19937;-89
2021/09/23 01:42:51;;;;;;;;;;;14.20;99.90;;;;;;5074684;28;20031;-88
2021/09/23 01:45:21;;;;;;;;;;;14.20;99.90;;;;;;5074801;28;19934;-89
2021/09/23 01:47:49;;;;;;;;;;;14.30;99.90;;;;;;5077666;28;19935;-89
2021/09/23 01:50:17;;;;;;;;;;;14.30;99.90;;;;;;5078581;28;19935;-89
2021/09/23 01:52:45;;;;;;;;;;;14.30;99.90;;;;;;5078199;28;19936;-87
2021/09/23 01:55:15;;;;;;;;;;;14.30;99.90;;;;;;5077880;28;19924;-86
2021/09/23 01:57:43;;;;;;;;;;;14.30;99.90;;;;;;5077815;28;20341;-87
2021/09/23 02:00:12;;;;;;;;;;;14.30;99.90;;;;;;5077889;28;19925;-88
2021/09/23 02:02:40;;;;;;;;;;;14.30;99.90;;;;;;5077833;28;19928;-88
2021/09/23 02:05:09;;;;;;;;;;;14.30;99.90;;;;;;5077864;28;20347;-88
2021/09/23 02:07:37;;;;;;;;;;;14.30;99.90;;;;;;5077901;28;19935;-89
2021/09/23 02:10:13;;;;;;;;;;;14.20;99.90;;;;;;5078010;28;19938;-88
2021/09/23 02:12:42;;;;;;;;;;;14.20;99.90;;;;;;5077481;28;19924;-89
2021/09/23 02:15:10;;;;;;;;;;;14.20;99.90;;;;;;5077596;28;19938;-89
2021/09/23 02:17:41;;;;;;;;;;;14.20;99.90;;;;;;5078010;28;19924;-89
2021/09/23 02:20:09;;;;;;;;;;;14.20;99.90;;;;;;5077920;28;19925;-89
2021/09/23 02:22:38;;;;;;;;;;;14.20;99.90;;;;;;5077702;28;19932;-89
2021/09/23 02:25:06;;;;;;;;;;;14.10;99.90;;;;;;5077401;28;19925;-89
2021/09/23 02:27:33;;;;;;;;;;;14.10;99.90;;;;;;5077922;28;19928;-89
2021/09/23 02:30:03;;;;;;;;;;;14.20;99.90;;;;;;5077545;28;20359;-89
2021/09/23 02:32:31;;;;;;;;;;;14.20;99.90;;;;;;5077668;28;20306;-90
2021/09/23 02:35:01;;;;;;;;;;;14.20;99.90;;;;;;5077364;28;19935;-89
2021/09/23 02:37:30;;;;;;;;;;;14.20;99.90;;;;;;5077775;28;20023;-88
2021/09/23 02:39:58;;;;;;;;;;;14.30;99.90;;;;;;5077033;28;20344;-89
2021/09/23 02:42:26;;;;;;;;;;;14.20;99.90;;;;;;5077100;28;19925;-89
2021/09/23 02:44:53;;;;;;;;;;;14.30;99.90;;;;;;5077417;28;20382;-90
2021/09/23 02:47:23;;;;;;;;;;;14.30;99.90;;;;;;5077487;28;19935;-90
2021/09/23 02:49:50;;;;;;;;;;;14.30;99.90;;;;;;5077644;28;20327;-91
2021/09/23 02:52:17;;;;;;;;;;;14.40;99.90;;;;;;5077279;28;19924;-91
2021/09/23 02:54:44;;;;;;;;;;;14.40;99.90;;;;;;5076952;28;19951;-91
2021/09/23 02:57:10;;;;;;;;;;;14.40;99.90;;;;;;5076950;28;19925;-91
2021/09/23 02:59:41;;;;;;;;;;;14.40;99.90;;;;;;5077051;28;20379;-91
2021/09/23 03:02:09;;;;;;;;;;;14.40;99.90;;;;;;5077367;28;19985;-92
2021/09/23 03:04:38;;;;;;;;;;;14.50;99.90;;;;;;5077274;28;20458;-91
2021/09/23 03:07:07;;;;;;;;;;;14.50;99.90;;;;;;5077414;28;19942;-92
2021/09/23 03:09:35;;;;;;;;;;;14.50;99.90;;;;;;5077057;28;19929;-91
2021/09/23 03:12:03;;;;;;;;;;;14.50;99.90;;;;;;5076917;28;19924;-91
2021/09/23 03:14:31;;;;;;;;;;;14.50;99.90;;;;;;5076979;28;19935;-92
2021/09/23 03:16:59;;;;;;;;;;;14.50;99.90;;;;;;5077089;28;19928;-91
2021/09/23 03:19:27;;;;;;;;;;;14.50;99.90;;;;;;5076904;28;19935;-91
2021/09/23 03:21:55;;;;;;;;;;;14.60;99.90;;;;;;5075516;28;20379;-92
2021/09/23 03:24:22;;;;;;;;;;;14.60;99.90;;;;;;5076693;28;19982;-92
2021/09/23 03:26:49;;;;;;;;;;;14.60;99.90;;;;;;5075958;28;19924;-92
2021/09/23 03:29:16;;;;;;;;;;;14.60;99.90;;;;;;5076694;28;19925;-91
2021/09/23 03:31:43;;;;;;;;;;;14.60;99.90;;;;;;5076573;28;20300;-93
2021/09/23 03:34:10;;;;;;;;;;;14.60;99.90;;;;;;5076587;28;19935;-92
2021/09/23 03:36:36;;;;;;;;;;;14.60;99.90;;;;;;5076596;28;19924;-92
2021/09/23 03:39:05;;;;;;;;;;;14.60;99.90;;;;;;5076534;28;19924;-92
2021/09/23 03:41:32;;;;;;;;;;;14.60;99.90;;;;;;5076484;28;19935;-92
2021/09/23 03:43:59;;;;;;;;;;;14.60;99.90;;;;;;5076233;28;19935;-93
2021/09/23 03:46:26;;;;;;;;;;;14.60;99.90;;;;;;5076331;28;19924;-92
2021/09/23 03:48:53;;;;;;;;;;;14.60;99.90;;;;;;5076526;28;19925;-92
2021/09/23 03:51:20;;;;;;;;;;;14.60;99.90;;;;;;5076141;28;19924;-93
2021/09/23 03:53:48;;;;;;;;;;;14.70;99.90;;;;;;5076133;28;20263;-92
2021/09/23 03:56:17;;;;;;;;;;;14.60;99.90;;;;;;5076425;28;19924;-92
2021/09/23 03:58:44;;;;;;;;;;;14.70;99.90;;;;;;5076245;28;19950;-93
2021/09/23 04:01:12;;;;;;;;;;;14.70;99.90;;;;;;5076065;28;20360;-92
2021/09/23 04:03:39;;;;;;;;;;;14.70;99.90;;;;;;5075961;28;19928;-92
2021/09/23 04:06:06;;;;;;;;;;;14.60;99.90;;;;;;5076449;28;19935;-92
2021/09/23 04:08:33;;;;;;;;;;;14.70;99.90;;;;;;5075686;28;19924;-92
2021/09/23 04:10:59;;;;;;;;;;;14.70;99.90;;;;;;5075980;28;20007;-92
2021/09/23 04:13:28;;;;;;;;;;;14.70;99.90;;;;;;5075943;28;19934;-92
2021/09/23 04:15:54;;;;;;;;;;;14.70;99.90;;;;;;5075832;28;20345;-92
2021/09/23 04:18:21;;;;;;;;;;;14.70;99.90;;;;;;5075776;28;19935;-92
2021/09/23 04:20:48;;;;;;;;;;;14.70;99.90;;;;;;5075800;28;19934;-92
2021/09/23 04:23:15;;;;;;;;;;;14.70;99.90;;;;;;5075859;28;19924;-92
2021/09/23 04:25:42;;;;;;;;;;;14.70;99.90;;;;;;5075539;28;19924;-92
2021/09/23 04:28:09;;;;;;;;;;;14.70;99.90;;;;;;5076160;28;19948;-92
2021/09/23 04:30:37;;;;;;;;;;;14.60;99.90;;;;;;5075709;28;19935;-92
2021/09/23 04:33:04;;;;;;;;;;;14.60;99.90;;;;;;5075537;28;20422;-92
2021/09/23 04:35:31;;;;;;;;;;;14.60;99.90;;;;;;5075890;28;19935;-93
2021/09/23 04:37:58;;;;;;;;;;;14.60;99.90;;;;;;5076069;28;19924;-93
2021/09/23 04:40:24;;;;;;;;;;;14.60;99.90;;;;;;5075715;28;19928;-93
2021/09/23 04:42:51;;;;;;;;;;;14.60;99.90;;;;;;5075479;28;19931;-94
2021/09/23 04:45:18;;;;;;;;;;;14.70;99.90;;;;;;5075725;28;19935;-91
2021/09/23 04:47:46;;;;;;;;;;;14.60;99.90;;;;;;5075646;28;19929;-94
2021/09/23 04:50:13;;;;;;;;;;;14.60;99.90;;;;;;5075612;28;20341;-94
2021/09/23 04:52:40;;;;;;;;;;;14.70;99.90;;;;;;5075606;28;20260;-92
2021/09/23 04:55:07;;;;;;;;;;;14.70;99.90;;;;;;5075395;28;19924;-90
2021/09/23 04:57:34;;;;;;;;;;;14.70;99.90;;;;;;5075182;28;19939;-90
2021/09/23 05:00:02;;;;;;;;;;;14.80;99.90;;;;;;5074994;28;19924;-89
2021/09/23 05:02:30;;;;;;;;;;;14.70;99.90;;;;;;5075230;28;19924;-89
2021/09/23 05:04:58;;;;;;;;;;;14.70;99.90;;;;;;5075230;28;20363;-90
2021/09/23 05:07:25;;;;;;;;;;;14.70;99.90;;;;;;5075450;28;19924;-90
2021/09/23 05:09:52;;;;;;;;;;;14.70;99.90;;;;;;5075345;28;19924;-89
2021/09/23 05:12:19;;;;;;;;;;;14.70;99.90;;;;;;5075021;28;19928;-89
2021/09/23 05:14:46;;;;;;;;;;;14.70;99.90;;;;;;5074910;28;19931;-90
2021/09/23 05:17:13;;;;;;;;;;;14.70;99.90;;;;;;5075148;28;19925;-89
2021/09/23 05:19:39;;;;;;;;;;;14.70;99.90;;;;;;5074844;28;19924;-89
2021/09/23 05:22:08;;;;;;;;;;;14.60;99.90;;;;;;5077336;28;19931;-89
2021/09/23 05:24:35;;;;;;;;;;;14.60;99.90;;;;;;5078400;28;20348;-88
2021/09/23 05:27:01;;;;;;;;;;;14.60;99.90;;;;;;5078541;28;19924;-89
2021/09/23 05:29:28;;;;;;;;;;;14.60;99.90;;;;;;5078428;28;19934;-88
2021/09/23 05:31:55;;;;;;;;;;;14.60;99.90;;;;;;5078428;28;19925;-88
2021/09/23 05:34:22;;;;;;;;;;;14.60;99.90;;;;;;5078330;28;19925;-88
2021/09/23 05:36:49;;;;;;;;;;;14.70;99.90;;;;;;5078265;28;19931;-89
2021/09/23 05:39:17;;;;;;;;;;;14.70;99.90;;;;;;5078340;28;19925;-88
2021/09/23 05:41:44;;;;;;;;;;;14.70;99.90;;;;;;5078399;28;19928;-87
2021/09/23 05:44:11;;;;;;;;;;;14.70;99.90;;;;;;5078144;28;19924;-87
2021/09/23 05:46:38;;;;;;;;;;;14.70;99.90;;;;;;5078145;28;19928;-87
2021/09/23 05:49:05;;;;;;;;;;;14.70;99.90;;;;;;5077964;28;19936;-87
2021/09/23 05:51:32;;;;;;;;;;;14.70;99.90;;;;;;5078158;28;19947;-87
2021/09/23 05:53:59;;;;;;;;;;;14.70;99.90;;;;;;5078089;28;19931;-86
2021/09/23 05:56:27;;;;;;;;;;;14.70;99.90;;;;;;5077958;28;19925;-86
2021/09/23 05:58:54;;;;;;;;;;;14.70;99.90;;;;;;5078301;28;19924;-86
2021/09/23 06:01:21;;;;;;;;;;;14.70;99.90;;;;;;5078199;28;19934;-87
2021/09/23 06:03:48;;;;;;;;;;;14.70;99.90;;;;;;5078081;28;19931;-87
2021/09/23 06:06:15;;;;;;;;;;;14.70;99.90;;;;;;5078007;28;19928;-87
2021/09/23 06:08:42;;;;;;;;;;;14.70;99.90;;;;;;5077718;28;19924;-88
2021/09/23 06:11:10;;;;;;;;;;;14.70;99.90;;;;;;5077872;28;19928;-89
2021/09/23 06:13:38;;;;;;;;;;;14.70;99.90;;;;;;5077674;28;19924;-88
2021/09/23 06:16:05;;;;;;;;;;;14.70;99.90;;;;;;5077864;28;20363;-90
2021/09/23 06:18:32;;;;;;;;;;;14.80;99.90;;;;;;5077901;28;20026;-91
2021/09/23 06:20:59;;;;;;;;;;;14.80;99.90;;;;;;5077966;28;20360;-89
2021/09/23 06:23:26;;;;;;;;;;;14.80;99.90;;;;;;5077841;28;20345;-89
2021/09/23 06:25:53;;;;;;;;;;;14.80;99.90;;;;;;5077504;28;20329;-90
2021/09/23 06:28:20;;;;;;;;;;;14.80;99.90;;;;;;5077738;28;19924;-90
2021/09/23 06:30:48;;;;;;;;;;;14.80;99.90;;;;;;5077856;28;19925;-90
2021/09/23 06:33:15;;;;;;;;;;;14.80;99.90;;;;;;5076829;28;19924;-89
2021/09/23 06:35:42;;;;;;;;;;;14.80;99.90;;;;;;5077234;28;19968;-88
2021/09/23 06:38:09;;;;;;;;;;;14.80;99.90;;;;;;5077333;28;20014;-89
2021/09/23 06:40:38;;;;;;;;;;;14.80;99.90;;;;;;5077281;28;19925;-89
2021/09/23 06:43:05;;;;;;;;;;;14.90;99.90;;;;;;5077432;28;19925;-88
2021/09/23 06:45:32;;;;;;;;;;;14.90;99.90;;;;;;5077131;28;20345;-90
2021/09/23 06:48:00;;;;;;;;;;;14.90;99.90;;;;;;5077002;28;19925;-88
2021/09/23 06:50:27;;;;;;;;;;;14.90;99.90;;;;;;5077104;28;19924;-89
2021/09/23 06:52:54;;;;;;;;;;;14.90;99.90;;;;;;5077087;28;19928;-89
2021/09/23 06:55:21;;;;;;;;;;;14.90;99.90;;;;;;5076990;28;20335;-90
2021/09/23 06:57:48;;;;;;;;;;;15.00;99.90;;;;;;5076836;28;19924;-90
2021/09/23 07:00:15;;;;;;;;;;;14.90;99.90;;;;;;5077305;28;19928;-90
2021/09/23 07:02:42;;;;;;;;;;;14.90;99.90;;;;;;5077385;28;20322;-89
2021/09/23 07:05:11;;;;;;;;;;;14.90;99.90;;;;;;5076705;28;19928;-89
2021/09/23 07:07:37;;;;;;;;;;;14.90;99.90;;;;;;5076681;28;20291;-90
2021/09/23 07:10:05;;;;;;;;;;;14.90;99.90;;;;;;5076823;28;20251;-90
2021/09/23 07:12:32;;;;;;;;;;;14.90;99.90;;;;;;5077091;28;19924;-90
2021/09/23 07:14:59;;;;;;;;;;;14.90;99.90;;;;;;5076857;28;19932;-90
2021/09/23 07:17:26;;;;;;;;;;;14.90;99.90;;;;;;5076924;28;19924;-90
2021/09/23 07:19:53;;;;;;;;;;;14.90;99.90;;;;;;5076421;28;20378;-90
2021/09/23 07:22:21;;;;;;;;;;;14.90;99.90;;;;;;5076530;28;19925;-89
2021/09/23 07:24:48;;;;;;;;;;;14.90;99.90;;;;;;5076333;28;20226;-90
2021/09/23 07:27:15;;;;;;;;;;;14.90;99.90;;;;;;5076713;28;20230;-90
2021/09/23 07:29:42;;;;;;;;;;;14.90;99.90;;;;;;5076433;28;19947;-90
2021/09/23 07:32:10;;;;;;;;;;;14.90;99.90;;;;;;5076509;28;19928;-89
2021/09/23 07:34:37;;;;;;;;;;;14.90;99.90;;;;;;5076299;28;19925;-89
2021/09/23 07:37:05;;;;;;;;;;;15.00;99.90;;;;;;5076152;28;19924;-89
2021/09/23 07:39:35;;;;;;;;;;;15.00;99.90;;;;;;5075386;28;20189;-89
2021/09/23 07:42:02;;;;;;;;;;;15.00;99.90;;;;;;5075955;28;20364;-89
2021/09/23 07:44:29;;;;;;;;;;;15.00;99.90;;;;;;5075340;28;20019;-89
2021/09/23 07:46:59;;;;;;;;;;;15.10;99.90;;;;;;5076008;28;19925;-90
2021/09/23 07:49:26;;;;;;;;;;;15.00;99.90;;;;;;5076243;28;19955;-90
2021/09/23 07:51:52;;;;;;;;;;;15.10;99.90;;;;;;5075780;28;20276;-89
2021/09/23 07:54:19;;;;;;;;;;;15.20;99.90;;;;;;5076087;28;19933;-89
2021/09/23 07:56:48;;;;;;;;;;;15.20;99.90;;;;;;5075737;28;19924;-89
2021/09/23 07:59:15;;;;;;;;;;;15.20;99.90;;;;;;5075833;28;20367;-89
2021/09/23 08:01:41;;;;;;;;;;;15.20;99.90;;;;;;5075718;28;19934;-89
2021/09/23 08:04:08;;;;;;;;;;;15.10;99.90;;;;;;5075706;28;19935;-89
2021/09/23 08:06:35;;;;;;;;;;;15.10;99.90;;;;;;5075602;28;20359;-89
2021/09/23 08:09:02;;;;;;;;;;;15.10;99.90;;;;;;5075850;28;19924;-88
2021/09/23 08:11:29;;;;;;;;;;;15.10;99.90;;;;;;5075601;28;20023;-90
2021/09/23 08:13:57;;;;;;;;;;;15.20;99.90;;;;;;5075747;28;19925;-88
2021/09/23 08:16:24;;;;;;;;;;;15.20;99.90;;;;;;5075363;28;20421;-89
2021/09/23 08:18:51;;;;;;;;;;;15.20;99.90;;;;;;5075442;28;19934;-89
2021/09/23 08:21:18;;;;;;;;;;;15.20;99.90;;;;;;5075538;28;20248;-89
2021/09/23 08:23:45;;;;;;;;;;;15.20;99.90;;;;;;5075736;28;19928;-90
2021/09/23 08:26:12;;;;;;;;;;;15.20;99.90;;;;;;5075160;28;19986;-90
2021/09/23 08:28:39;;;;;;;;;;;15.20;99.90;;;;;;5075520;28;19928;-89
2021/09/23 08:31:09;;;;;;;;;;;15.30;99.90;;;;;;5075270;28;19925;-89
2021/09/23 08:33:36;;;;;;;;;;;17.20;99.90;;;;;;5075662;28;20292;-89
2021/09/23 08:36:03;;;;;;;;;;;15.40;99.90;;;;;;5075940;28;19924;-90
2021/09/23 08:38:30;;;;;;;;;;;15.50;99.90;;;;;;5075350;28;19924;-90
2021/09/23 08:40:57;;;;;;;;;;;15.50;99.90;;;;;;5075332;28;19924;-90
2021/09/23 08:43:24;;;;;;;;;;;15.50;99.90;;;;;;5075389;28;20273;-91
2021/09/23 08:45:52;;;;;;;;;;;15.50;99.90;;;;;;5075445;28;19924;-88
2021/09/23 08:48:21;;;;;;;;;;;15.60;99.90;;;;;;5075380;28;19925;-91
2021/09/23 08:50:50;;;;;;;;;;;15.60;99.90;;;;;;5075838;28;19950;-90
2021/09/23 08:53:19;;;;;;;;;;;15.60;99.90;;;;;;5075537;28;19932;-91
2021/09/23 08:55:47;;;;;;;;;;;15.60;99.90;;;;;;5077346;28;20398;-91
2021/09/23 08:58:15;;;;;;;;;;;15.60;99.90;;;;;;5079728;28;19935;-91
2021/09/23 09:01:03;;;;;;;;;;;15.70;99.90;;;;;;5079726;28;20007;-91
2021/09/23 09:03:34;;;;;;;;;;;15.70;99.90;;;;;;5079864;28;19924;-91
2021/09/23 09:06:03;;;;;;;;;;;15.60;99.90;;;;;;5079710;28;20367;-91
2021/09/23 09:08:32;;;;;;;;;;;15.60;99.90;;;;;;5079853;28;19935;-92
2021/09/23 09:11:01;;;;;;;;;;;15.60;99.90;;;;;;5079447;28;20011;-91
2021/09/23 09:13:33;;;;;;;;;;;15.60;99.90;;;;;;5079889;28;19924;-91
2021/09/23 09:16:04;;;;;;;;;;;15.60;99.90;;;;;;5079172;28;19924;-90
2021/09/23 09:18:49;;;;;;;;;;;15.60;99.90;;;;;;5079322;28;19994;-91
2021/09/23 09:21:19;;;;;;;;;;;15.50;99.90;;;;;;5079283;28;19975;-93
2021/09/23 09:23:49;;;;;;;;;;;15.50;99.90;;;;;;5079268;28;19934;-94
2021/09/23 09:26:23;;;;;;;;;;;15.50;99.90;;;;;;5079371;28;19982;-92
2021/09/23 09:28:52;;;;;;;;;;;15.50;99.90;;;;;;5079639;28;19924;-91
2021/09/23 09:31:24;;;;;;;;;;;15.50;99.90;;;;;;5079397;28;19924;-94
2021/09/23 09:33:51;;;;;;;;;;;15.50;99.90;;;;;;5094921;28;19982;-91
2021/09/23 09:36:26;;;;;;;;;;;15.50;99.90;;;;;;5078879;28;19925;-91
2021/09/23 09:38:53;;;;;;;;;;;15.50;99.90;;;;;;5078286;28;20242;-91
2021/09/23 09:41:23;;;;;;;;;;;15.60;99.90;;;;;;5078800;28;19924;-91
2021/09/23 09:43:50;;;;;;;;;;;15.50;99.90;;;;;;5078885;28;19925;-92
2021/09/23 09:46:23;;;;;;;;;;;15.60;99.90;;;;;;5078027;28;19925;-94
2021/09/23 09:48:50;;;;;;;;;;;15.60;99.90;;;;;;5078775;28;19924;-92
2021/09/23 09:51:16;;;;;;;;;;;15.60;99.90;;;;;;5078803;28;19939;-90
2021/09/23 09:53:45;;;;;;;;;;;15.60;99.90;;;;;;5078587;28;19924;-91
2021/09/23 09:56:20;;;;;;;;;;;15.60;99.90;;;;;;5079422;28;20260;-91
2021/09/23 09:59:02;;;;;;;;;;;15.60;99.90;;;;;;5078403;28;19924;-90
2021/09/23 10:01:29;;;;;;;;;;;15.70;99.90;;;;;;5078136;28;20234;-89
2021/09/23 10:03:56;;;;;;;;;;;15.70;99.90;;;;;;5078218;28;20337;-91
2021/09/23 10:06:23;;;;;;;;;;;15.70;99.90;;;;;;5077929;28;20007;-90
2021/09/23 10:08:51;;;;;;;;;;;15.80;99.90;;;;;;5078147;28;19925;-90
2021/09/23 10:11:18;;;;;;;;;;;15.80;99.90;;;;;;5078625;28;19924;-89
2021/09/23 10:13:45;;;;;;;;;;;15.80;99.90;;;;;;5078089;28;19931;-92
2021/09/23 10:16:11;;;;;;;;;;;15.80;99.90;;;;;;5078413;28;20264;-92
2021/09/23 10:18:39;;;;;;;;;;;15.70;99.90;;;;;;5078183;28;19938;-90
2021/09/23 10:21:05;;;;;;;;;;;15.70;99.90;;;;;;5078155;28;19924;-92
2021/09/23 10:23:39;;;;;;;;;;;15.70;99.90;;;;;;5078358;28;19924;-92
2021/09/23 10:26:07;;;;;;;;;;;15.60;99.90;;;;;;5077917;28;19924;-90
2021/09/23 10:28:36;;;;;;;;;;;15.60;99.90;;;;;;5077704;28;19924;-90
2021/09/23 10:31:08;;;;;;;;;;;15.60;99.90;;;;;;5077969;28;19924;-91
2021/09/23 10:33:38;;;;;;;;;;;15.60;99.90;;;;;;5078114;28;20245;-91
2021/09/23 10:36:07;;;;;;;;;;;15.60;99.90;;;;;;5078143;28;19935;-90
2021/09/23 10:38:35;;;;;;;;;;;15.60;99.90;;;;;;5077750;28;19924;-91
2021/09/23 10:41:02;;;;;;;;;;;15.60;99.90;;;;;;5077631;28;19934;-93
2021/09/23 10:43:30;;;;;;;;;;;15.70;99.90;;;;;;5077628;28;19924;-89
2021/09/23 10:45:57;;;;;;;;;;;15.70;99.90;;;;;;5077059;28;19928;-90
2021/09/23 10:48:24;;;;;;;;;;;15.70;99.90;;;;;;5076697;28;19924;-90
2021/09/23 10:50:51;;;;;;;;;;;15.70;99.90;;;;;;5077272;28;19938;-91
2021/09/23 10:53:18;;;;;;;;;;;15.70;99.90;;;;;;5077377;28;19951;-90
2021/09/23 10:55:45;;;;;;;;;;;15.80;99.90;;;;;;5077291;28;19929;-90
2021/09/23 10:58:22;;;;;;;;;;;15.80;99.90;;;;;;5077168;28;19925;-89
2021/09/23 11:00:52;;;;;;;;;;;15.70;99.90;;;;;;5077518;28;20307;-90
2021/09/23 11:03:20;;;;;;;;;;;15.70;99.90;;;;;;5077209;28;19931;-91
2021/09/23 11:05:49;;;;;;;;;;;15.60;99.90;;;;;;5077663;28;19924;-91
2021/09/23 11:08:18;;;;;;;;;;;15.60;99.90;;;;;;5077379;28;19924;-91
2021/09/23 11:10:46;;;;;;;;;;;15.60;99.90;;;;;;5076868;28;20023;-90
2021/09/23 11:13:16;;;;;;;;;;;15.60;99.90;;;;;;5077188;28;19935;-91
2021/09/23 11:15:46;;;;;;;;;;;15.60;99.90;;;;;;5076758;28;20414;-91
2021/09/23 11:18:15;;;;;;;;;;;15.70;99.90;;;;;;5076734;28;19931;-91
2021/09/23 11:20:46;;;;;;;;;;;15.70;99.90;;;;;;5076788;28;19942;-90
2021/09/23 11:23:16;;;;;;;;;;;15.70;99.90;;;;;;5077186;28;20276;-91
2021/09/23 11:25:50;;;;;;;;;;;15.80;99.90;;;;;;5076346;28;20023;-90
2021/09/23 11:28:18;;;;;;;;;;;15.80;99.90;;;;;;5076638;28;19924;-91
2021/09/23 11:30:46;;;;;;;;;;;15.80;99.90;;;;;;5076459;28;19931;-90
2021/09/23 11:33:17;;;;;;;;;;;15.90;99.90;;;;;;5076675;28;20364;-90
2021/09/23 11:35:44;;;;;;;;;;;15.90;99.90;;;;;;5080533;28;19924;-90
2021/09/23 11:38:19;;;;;;;;;;;16.00;99.90;;;;;;5096762;28;19930;-88
2021/09/23 11:40:47;;;;;;;;;;;16.00;99.90;;;;;;5096798;28;19935;-88
2021/09/23 11:43:17;;;;;;;;;;;16.10;99.90;;;;;;5096922;28;20263;-92
2021/09/23 11:45:46;;;;;;;;;;;16.20;99.90;;;;;;5096833;28;19924;-90
2021/09/23 11:48:16;;;;;;;;;;;16.20;99.90;;;;;;5096448;28;19931;-90
2021/09/23 11:50:52;;;;;;;;;;;16.20;99.90;;;;;;5096917;28;19956;-90
2021/09/23 11:53:21;;;;;;;;;;;16.20;99.90;;;;;;5080553;28;19936;-91
2021/09/23 11:55:54;;;;;;;;;;;16.30;99.90;;;;;;5076122;28;19931;-91
2021/09/23 11:58:22;;;;;;;;;;;16.20;99.90;;;;;;5076049;28;20015;-92
2021/09/23 12:00:51;;;;;;;;;;;16.20;99.90;;;;;;5076051;28;20333;-90
2021/09/23 12:03:20;;;;;;;;;;;16.20;99.90;;;;;;5076238;28;20364;-91
2021/09/23 12:05:50;;;;;;;;;;;16.20;99.90;;;;;;5076250;28;19959;-92
2021/09/23 12:08:19;;;;;;;;;;;16.10;99.90;;;;;;5076265;28;19924;-90
2021/09/23 12:10:51;;;;;;;;;;;16.10;99.90;;;;;;5076535;28;19924;-91
2021/09/23 12:13:24;;;;;;;;;;;16.10;99.90;;;;;;5076209;28;19924;-91
2021/09/23 12:15:53;;;;;;;;;;;16.00;99.90;;;;;;5076004;28;20348;-90
2021/09/23 12:18:24;;;;;;;;;;;15.90;99.90;;;;;;5075733;28;19934;-91
2021/09/23 12:20:54;;;;;;;;;;;15.90;99.90;;;;;;5075753;28;19970;-89
2021/09/23 12:23:26;;;;;;;;;;;15.90;99.90;;;;;;5076070;28;19924;-91
2021/09/23 12:26:11;;;;;;;;;;;15.90;99.90;;;;;;5075282;28;19934;-90
2021/09/23 12:28:43;;;;;;;;;;;15.90;99.90;;;;;;5076036;28;19993;-93
2021/09/23 12:31:11;;;;;;;;;;;15.90;99.90;;;;;;5075218;28;20360;-91
2021/09/23 12:33:52;;;;;;;;;;;15.80;99.90;;;;;;5076084;28;19928;-92
2021/09/23 12:36:25;;;;;;;;;;;15.90;99.90;;;;;;5076023;28;19925;-90
2021/09/23 12:39:03;;;;;;;;;;;15.80;99.90;;;;;;5075526;28;20260;-91
2021/09/23 12:41:30;;;;;;;;;;;15.80;99.90;;;;;;5075827;28;20255;-89
2021/09/23 12:44:03;;;;;;;;;;;15.80;99.90;;;;;;5075321;28;20371;-90
2021/09/23 12:46:30;;;;;;;;;;;15.80;99.90;;;;;;5074952;28;19932;-90
2021/09/23 12:49:11;;;;;;;;;;;15.80;99.90;;;;;;5075632;28;19935;-90
2021/09/23 12:51:40;;;;;;;;;;;15.70;99.90;;;;;;5075336;28;19932;-91
2021/09/23 12:54:16;;;;;;;;;;;15.80;99.90;;;;;;5075346;28;20023;-90
2021/09/23 12:56:43;;;;;;;;;;;15.80;99.90;;;;;;5075331;28;19935;-90
2021/09/23 12:59:20;;;;;;;;;;;15.80;99.90;;;;;;5075290;28;19942;-90
2021/09/23 13:01:47;;;;;;;;;;;15.80;99.90;;;;;;5075460;28;19925;-90
2021/09/23 13:04:20;;;;;;;;;;;15.70;99.90;;;;;;5074391;28;19931;-90
2021/09/23 13:06:48;;;;;;;;;;;15.80;99.90;;;;;;5074672;28;20364;-90
2021/09/23 13:09:15;;;;;;;;;;;15.70;99.90;;;;;;5075282;28;19924;-91
2021/09/23 13:11:42;;;;;;;;;;;15.70;99.90;;;;;;5075276;28;19925;-91
2021/09/23 13:14:19;;;;;;;;;;;15.70;99.90;;;;;;5075273;28;19939;-90
2021/09/23 13:16:47;;;;;;;;;;;15.70;99.90;;;;;;5075232;28;19974;-90
2021/09/23 13:19:15;;;;;;;;;;;15.70;99.90;;;;;;5075162;28;19924;-89
2021/09/23 13:21:44;;;;;;;;;;;15.70;99.90;;;;;;5075514;28;19924;-90
2021/09/23 13:24:14;;;;;;;;;;;15.60;99.90;;;;;;5074678;28;19943;-90
2021/09/23 13:26:44;;;;;;;;;;;15.60;99.90;;;;;;5074926;28;19925;-89
2021/09/23 13:29:12;;;;;;;;;;;15.70;99.90;;;;;;5075284;28;20275;-90
2021/09/23 13:31:41;;;;;;;;;;;15.70;99.90;;;;;;5075002;28;20279;-89
2021/09/23 13:34:09;;;;;;;;;;;15.70;99.90;;;;;;5075077;28;19924;-89
2021/09/23 13:36:37;;;;;;;;;;;15.70;99.90;;;;;;5075022;28;19924;-91
2021/09/23 13:39:06;;;;;;;;;;;15.80;99.90;;;;;;5075003;28;20019;-89
2021/09/23 13:41:50;;;;;;;;;;;15.90;99.90;;;;;;5074633;28;19982;-90
2021/09/23 13:44:18;;;;;;;;;;;16.00;99.90;;;;;;5078520;28;20272;-90
2021/09/23 13:46:46;;;;;;;;;;;16.10;99.90;;;;;;5078592;28;19931;-90
2021/09/23 13:49:14;;;;;;;;;;;16.00;99.90;;;;;;5078598;28;20363;-91
2021/09/23 13:51:44;;;;;;;;;;;16.10;99.90;;;;;;5079031;28;19924;-90
2021/09/23 13:54:12;;;;;;;;;;;16.10;99.90;;;;;;5078883;28;19936;-91
2021/09/23 13:56:41;;;;;;;;;;;16.10;99.90;;;;;;5078572;28;19932;-91
2021/09/23 13:59:10;;;;;;;;;;;16.10;99.90;;;;;;5078600;28;19929;-89
2021/09/23 14:01:38;;;;;;;;;;;16.10;99.90;;;;;;5078544;28;20260;-90
2021/09/23 14:04:06;;;;;;;;;;;16.10;99.90;;;;;;5078901;28;19935;-90
2021/09/23 14:06:34;;;;;;;;;;;16.10;99.90;;;;;;5078541;28;19947;-90
2021/09/23 14:09:02;;;;;;;;;;;16.10;99.90;;;;;;5078734;28;19924;-91
2021/09/23 14:11:30;;;;;;;;;;;16.10;99.90;;;;;;5078169;28;20210;-92
2021/09/23 14:14:01;;;;;;;;;;;16.20;99.90;;;;;;5078144;28;20283;-91
2021/09/23 14:16:29;;;;;;;;;;;16.10;99.90;;;;;;5078415;28;20260;-90
2021/09/23 14:18:59;;;;;;;;;;;16.10;99.90;;;;;;5078154;28;19924;-93
2021/09/23 14:21:26;;;;;;;;;;;16.10;99.90;;;;;;5078104;28;20011;-92
2021/09/23 14:23:54;;;;;;;;;;;16.10;99.90;;;;;;5077903;28;19934;-91